Time;durP1;ratioP1;P1;durP2;ratioP2;P2;SDS_P1;SDS_P2;PMS_P1;PMS_P2;Temp;Humidity;BMP_temperature;BMP_pressure;BME280_temperature;BME280_humidity;BME280_pressure;Samples;Min_cycle;Max_cycle;Signal;HPM_P1;HPM_P2
2022/12/27 00:02:20;;;;;;;16.00;10.45;;;;;;;10.85;76.89;94504.86;1575792;89;21093;-45
2022/12/27 00:04:47;;;;;;;9.30;7.42;;;;;;;10.86;76.40;94502.85;1580028;89;22111;-45
2022/12/27 00:07:14;;;;;;;10.72;7.92;;;;;;;10.82;76.01;94497.48;1560464;90;21575;-44
2022/12/27 00:09:40;;;;;;;7.25;6.53;;;;;;;10.87;75.30;94492.00;1561048;90;21084;-44
2022/12/27 00:12:08;;;;;;;11.00;7.78;;;;;;;10.96;74.22;94498.30;1545124;91;21119;-44
2022/12/27 00:14:34;;;;;;;9.68;7.50;;;;;;;11.06;74.10;94486.69;1560400;90;21014;-44
2022/12/27 00:17:03;;;;;;;12.45;8.95;;;;;;;11.13;74.02;94495.42;1584119;89;21192;-45
2022/12/27 00:19:29;;;;;;;9.58;7.45;;;;;;;11.18;73.61;94500.32;1598732;88;21117;-45
2022/12/27 00:21:56;;;;;;;7.90;6.33;;;;;;;11.23;73.48;94492.85;1585782;88;21012;-44
2022/12/27 00:24:23;;;;;;;9.55;6.42;;;;;;;11.24;73.09;94498.52;1614638;88;21033;-44
2022/12/27 00:26:50;;;;;;;8.18;6.33;;;;;;;11.23;73.03;94484.59;1590170;89;21120;-44
2022/12/27 00:29:16;;;;;;;6.17;5.60;;;;;;;11.21;72.83;94482.87;1566298;90;21168;-43
2022/12/27 00:31:43;;;;;;;7.37;5.47;;;;;;;11.24;72.79;94480.61;1622953;82;21003;-45
2022/12/27 00:34:10;;;;;;;15.20;11.73;;;;;;;11.30;72.67;94487.63;1737665;82;21510;-45
2022/12/27 00:36:37;;;;;;;8.63;7.65;;;;;;;11.32;72.67;94481.09;1731452;82;20991;-45
2022/12/27 00:39:04;;;;;;;25.68;23.18;;;;;;;11.30;72.82;94478.00;1770222;78;20993;-44
2022/12/27 00:41:31;;;;;;;15.65;14.15;;;;;;;11.29;73.04;94479.22;1790716;79;21239;-44
2022/12/27 00:43:58;;;;;;;9.55;8.55;;;;;;;11.30;73.11;94483.50;1795441;79;21440;-45
2022/12/27 00:46:25;;;;;;;22.13;20.12;;;;;;;11.29;73.18;94474.49;1782665;78;20966;-45
2022/12/27 00:48:52;;;;;;;18.98;17.17;;;;;;;11.29;73.47;94474.49;1799661;78;20979;-45
2022/12/27 00:51:22;;;;;;;14.68;12.93;;;;;;;11.30;73.62;94465.01;1805955;79;20958;-45
2022/12/27 00:53:49;;;;;;;24.95;22.52;;;;;;;11.31;73.80;94463.03;1791891;78;21203;-44
2022/12/27 00:56:19;;;;;;;19.55;14.60;;;;;;;11.32;74.05;94470.81;1796611;78;20994;-46
2022/12/27 00:58:46;;;;;;;16.48;13.30;;;;;;;11.34;74.10;94465.61;1799673;79;20938;-44
2022/12/27 01:01:19;;;;;;;9.80;7.53;;;;;;;11.31;74.18;94454.14;1802446;79;21470;-45
2022/12/27 01:03:46;;;;;;;7.53;6.75;;;;;;;11.27;74.50;94465.15;1788594;78;22261;-43
2022/12/27 01:06:16;;;;;;;7.95;5.87;;;;;;;11.23;74.62;94459.03;1812335;79;21192;-46
2022/12/27 01:08:43;;;;;;;7.15;5.80;;;;;;;11.19;74.80;94459.17;1784445;79;20939;-45
2022/12/27 01:11:10;;;;;;;7.70;6.97;;;;;;;11.19;74.84;94454.30;1792615;79;21042;-46
2022/12/27 01:13:38;;;;;;;9.15;8.25;;;;;;;11.19;75.02;94459.17;1801494;79;21616;-46
2022/12/27 01:16:13;;;;;;;6.03;5.50;;;;;;;11.23;74.92;94465.31;1795938;79;21704;-45
2022/12/27 01:18:40;;;;;;;12.03;10.65;;;;;;;11.29;74.80;94462.70;1813046;79;21884;-45
2022/12/27 01:21:09;;;;;;;9.55;8.65;;;;;;;11.34;74.32;94464.23;1808539;78;21041;-46
2022/12/27 01:23:36;;;;;;;9.80;8.13;;;;;;;11.41;73.94;94472.22;1794632;79;21051;-44
2022/12/27 01:26:06;;;;;;;25.97;16.45;;;;;;;11.45;73.57;94454.14;1795113;79;20997;-45
2022/12/27 01:28:34;;;;;;;18.45;12.43;;;;;;;11.46;73.29;94453.69;1801260;79;21056;-45
2022/12/27 01:31:09;;;;;;;8.90;7.35;;;;;;;11.45;73.02;94456.89;1795000;78;21101;-45
2022/12/27 01:33:37;;;;;;;6.47;5.75;;;;;;;11.41;72.90;94458.44;1794691;79;21545;-46
2022/12/27 01:36:11;;;;;;;8.63;7.15;;;;;;;11.36;73.05;94452.14;1803406;79;20949;-45
2022/12/27 01:38:38;;;;;;;11.70;8.95;;;;;;;11.34;73.33;94451.84;1668815;84;21104;-44
2022/12/27 01:42:50;;;;;;;12.23;9.55;;;;;;;11.25;73.67;94455.98;1659508;85;21268;-44
2022/12/27 01:43:37;;;;;;;24.47;12.70;;;;;;;11.21;73.90;94455.34;1659336;85;21272;-44
2022/12/27 01:46:04;;;;;;;30.15;18.80;;;;;;;11.15;74.03;94458.56;1632954;86;21160;-44
2022/12/27 01:48:31;;;;;;;51.25;27.77;;;;;;;11.10;74.41;94461.15;1661817;85;21510;-45
2022/12/27 01:51:01;;;;;;;35.80;21.60;;;;;;;11.12;74.62;94466.36;1640983;86;21154;-46
2022/12/27 01:53:36;;;;;;;20.48;11.95;;;;;;;11.15;74.39;94468.20;1655949;85;21659;-44
2022/12/27 01:56:08;;;;;;;21.10;12.18;;;;;;;11.15;74.16;94466.07;1632214;87;21237;-46
2022/12/27 01:58:53;;;;;;;8.90;7.28;;;;;;;11.15;73.92;94460.56;1564497;89;21142;-45
2022/12/27 02:01:22;;;;;;;6.17;5.53;;;;;;;11.17;73.49;94464.38;1551518;91;21083;-44
2022/12/27 02:03:54;;;;;;;4.90;4.40;;;;;;;11.19;73.05;94456.42;1528378;92;21059;-44
2022/12/27 02:06:22;;;;;;;6.42;5.50;;;;;;;11.20;72.97;94452.44;1552703;89;21111;-44
2022/12/27 02:09:00;;;;;;;7.12;5.17;;;;;;;11.18;73.10;94454.89;1555974;91;21250;-45
2022/12/27 02:14:41;;;;;;;8.68;4.97;;;;;;;11.18;73.12;94440.38;1570905;90;21180;-45
2022/12/27 02:17:27;;;;;;;5.93;4.97;;;;;;;11.10;73.38;94442.66;1530663;93;21096;-45
2022/12/27 02:20:17;;;;;;;8.95;6.70;;;;;;;11.06;73.62;94439.89;1530420;93;21086;-44
2022/12/27 02:26:30;;;;;;;6.28;5.45;;;;;;;11.01;74.17;94430.25;1530441;93;21071;-47
2022/12/27 02:29:08;;;;;;;8.65;5.22;;;;;;;10.98;74.15;94427.03;1500718;95;21613;-44
2022/12/27 02:32:34;;;;;;;9.80;7.67;;;;;;;10.95;74.35;94432.09;1515125;94;21090;-46
2022/12/27 02:35:17;;;;;;;13.62;9.23;;;;;;;10.94;74.44;94427.80;1529845;91;21677;-44
2022/12/27 02:37:56;;;;;;;8.20;6.45;;;;;;;10.96;74.46;94421.23;1565608;91;21198;-44
2022/12/27 02:55:24;;;;;;;6.37;5.42;;;;;;;10.82;74.35;94421.81;1503013;95;21053;-44
2022/12/27 02:58:14;;;;;;;5.83;5.22;;;;;;;10.78;74.54;94425.95;1503196;95;21124;-45
2022/12/27 03:04:23;;;;;;;5.35;4.85;;;;;;;10.76;74.58;94434.65;1402355;101;21062;-44
2022/12/27 03:07:04;;;;;;;4.90;4.50;;;;;;;10.82;73.83;94429.31;1402846;101;21233;-45
2022/12/27 03:16:15;;;;;;;6.97;5.33;;;;;;;10.82;73.40;94420.44;1347810;105;21554;-45
2022/12/27 03:25:26;;;;;;;5.40;4.90;;;;;;;10.89;73.18;94420.75;1341662;105;21186;-44
2022/12/27 03:27:34;;;;;;;5.55;4.97;;;;;;;10.91;73.01;94419.09;1385101;102;21163;-44
2022/12/27 03:33:11;;;;;;;6.75;5.83;;;;;;;10.95;72.34;94425.20;1392353;102;21088;-46
2022/12/27 03:39:25;;;;;;;18.17;12.20;;;;;;;10.91;72.53;94412.80;1405811;100;21182;-44
2022/12/27 03:44:45;;;;;;;13.95;9.73;;;;;;;10.96;72.54;94407.47;1590391;88;21136;-45
2022/12/27 03:47:32;;;;;;;7.05;5.55;;;;;;;10.96;72.43;94397.08;1654254;85;21589;-45
2022/12/27 03:50:11;;;;;;;6.33;5.72;;;;;;;10.93;72.45;94402.10;1708077;82;21184;-45
2022/12/27 03:53:00;;;;;;;5.78;5.17;;;;;;;10.89;72.45;94398.14;1711310;83;21062;-44
2022/12/27 03:55:27;;;;;;;6.30;5.53;;;;;;;10.84;72.62;94394.59;1689529;84;21149;-45
2022/12/27 03:57:54;;;;;;;7.78;5.95;;;;;;;10.81;72.87;94385.89;1694441;83;21034;-45
2022/12/27 04:00:20;;;;;;;6.87;5.60;;;;;;;10.80;72.97;94387.73;1701925;83;21122;-44
2022/12/27 04:02:48;;;;;;;8.90;6.00;;;;;;;10.74;73.05;94382.06;1711645;83;21167;-44
2022/12/27 04:05:16;;;;;;;10.93;8.85;;;;;;;10.67;73.22;94380.81;1709724;83;21006;-44
2022/12/27 04:35:16;;;;;;;22.13;16.85;;;;;;;10.28;75.20;94406.39;1706466;83;21568;-45
2022/12/27 04:37:43;;;;;;;20.52;14.65;;;;;;;10.24;75.60;94401.05;1714857;78;21060;-44
2022/12/27 04:56:42;;;;;;;20.20;14.95;;;;;;;10.55;75.13;94411.98;1721676;82;21263;-45
2022/12/27 06:04:25;;;;;;;99.13;57.15;;;;;;;8.51;85.15;94382.31;1824703;77;26066;-45
2022/12/27 06:06:52;;;;;;;72.50;43.40;;;;;;;8.42;85.31;94385.57;1797154;78;21490;-43
2022/12/27 06:09:20;;;;;;;57.30;39.10;;;;;;;8.41;85.64;94388.16;1783893;77;21445;-44
2022/12/27 06:11:47;;;;;;;64.62;42.25;;;;;;;8.40;85.77;94395.59;1794836;78;20981;-44
2022/12/27 06:14:14;;;;;;;125.15;78.67;;;;;;;8.39;86.13;94396.80;1786884;79;21010;-45
2022/12/27 06:16:41;;;;;;;224.12;121.45;;;;;;;8.42;86.33;94399.27;1789410;79;21022;-45
2022/12/27 06:19:08;;;;;;;65.05;40.83;;;;;;;8.49;86.67;94398.44;1812605;78;20926;-44
2022/12/27 06:21:35;;;;;;;48.95;30.95;;;;;;;8.52;86.52;94396.77;1810878;78;21234;-43
2022/12/27 06:24:02;;;;;;;41.42;24.00;;;;;;;8.50;86.28;94389.59;1812615;78;21199;-44
2022/12/27 06:26:29;;;;;;;34.30;23.22;;;;;;;8.47;86.41;94384.39;1810128;78;21083;-44
2022/12/27 06:28:57;;;;;;;57.03;28.73;;;;;;;8.49;86.61;94376.52;1787726;78;21127;-45
2022/12/27 06:31:26;;;;;;;51.33;33.10;;;;;;;8.53;86.49;94377.74;1809815;78;21033;-45
2022/12/27 06:33:53;;;;;;;82.30;51.13;;;;;;;8.53;86.33;94383.22;1813432;78;21559;-45
2022/12/27 06:36:23;;;;;;;106.55;60.52;;;;;;;8.52;85.87;94392.07;1758935;80;21048;-45
2022/12/27 06:38:50;;;;;;;104.53;61.40;;;;;;;8.52;85.92;94394.81;1781037;80;21028;-45
2022/12/27 06:41:17;;;;;;;81.95;46.92;;;;;;;8.57;85.83;94392.88;1783426;79;21088;-44
2022/12/27 06:43:44;;;;;;;71.20;44.08;;;;;;;8.60;85.55;94396.09;1775023;80;21124;-52
2022/12/27 06:46:16;;;;;;;82.15;49.30;;;;;;;8.67;85.80;94403.32;1753034;80;21203;-43
2022/12/27 06:48:46;;;;;;;94.77;51.08;;;;;;;8.70;85.35;94405.95;1754453;80;21113;-44
2022/12/27 06:51:15;;;;;;;96.00;58.30;;;;;;;8.68;85.43;94415.23;1749003;80;21147;-44
2022/12/27 06:53:44;;;;;;;103.05;69.27;;;;;;;8.65;85.33;94418.08;1741284;80;21009;-44
2022/12/27 06:56:15;;;;;;;93.22;64.77;;;;;;;8.65;85.50;94420.20;1724473;81;21527;-46
2022/12/27 06:58:42;;;;;;;87.90;59.03;;;;;;;8.72;85.69;94424.09;1702351;81;21973;-46
2022/12/27 07:01:12;;;;;;;62.73;44.83;;;;;;;8.80;85.56;94426.75;1718172;81;21580;-45
2022/12/27 07:03:39;;;;;;;63.68;40.85;;;;;;;8.84;84.84;94428.77;1741375;80;21162;-43
2022/12/27 07:06:08;;;;;;;54.18;35.98;;;;;;;8.79;84.90;94418.98;1741025;80;21111;-43
2022/12/27 07:08:36;;;;;;;46.37;29.00;;;;;;;8.78;85.10;94415.46;1760900;78;21134;-46
2022/12/27 07:11:06;;;;;;;42.90;31.48;;;;;;;8.74;84.69;94411.30;1758928;79;21840;-46
2022/12/27 07:13:37;;;;;;;63.35;44.48;;;;;;;8.68;84.69;94407.59;1757455;79;21088;-46
2022/12/27 07:16:05;;;;;;;48.73;30.88;;;;;;;8.66;84.90;94407.27;1740745;80;21093;-47
2022/12/27 07:18:34;;;;;;;59.70;35.50;;;;;;;8.68;84.85;94414.45;1737804;82;21135;-48
2022/12/27 07:21:17;;;;;;;43.42;28.52;;;;;;;8.74;84.59;94408.55;1682926;83;21115;-48
2022/12/27 07:23:46;;;;;;;42.45;26.17;;;;;;;8.78;84.34;94412.72;1666030;84;21647;-47
2022/12/27 07:26:27;;;;;;;42.80;30.25;;;;;;;8.82;83.97;94413.36;1655466;84;21722;-47
2022/12/27 07:28:57;;;;;;;84.32;55.05;;;;;;;8.88;83.78;94406.13;1678800;84;21261;-46
2022/12/27 07:31:25;;;;;;;60.80;40.50;;;;;;;8.98;83.33;94402.23;1685563;84;21139;-54
2022/12/27 07:33:52;;;;;;;81.12;51.80;;;;;;;8.99;82.83;94389.45;1681119;84;21202;-50
2022/12/27 07:36:27;;;;;;;79.20;51.30;;;;;;;9.07;82.65;94381.73;1681627;84;21190;-48
2022/12/27 07:38:54;;;;;;;71.10;47.48;;;;;;;9.19;82.33;94393.24;1685885;83;21232;-51
2022/12/27 07:41:23;;;;;;;76.60;50.00;;;;;;;9.27;81.98;94387.05;1615700;86;21223;-46
2022/12/27 07:43:50;;;;;;;68.17;45.88;;;;;;;9.36;81.69;94386.34;1618320;86;21254;-48
2022/12/27 07:46:22;;;;;;;60.60;39.95;;;;;;;9.45;81.14;94381.68;1679228;83;21178;-47
2022/12/27 07:48:49;;;;;;;45.55;33.15;;;;;;;9.49;80.60;94378.81;1689487;83;21131;-46
2022/12/27 07:51:16;;;;;;;42.55;33.42;;;;;;;9.45;80.27;94376.19;1693151;83;21091;-48
2022/12/27 07:53:43;;;;;;;26.57;21.73;;;;;;;9.42;80.21;94379.84;1688918;84;21483;-48
2022/12/27 07:56:13;;;;;;;15.30;13.30;;;;;;;9.47;79.72;94385.36;1687397;83;21508;-46
2022/12/27 07:58:42;;;;;;;12.35;11.08;;;;;;;9.55;78.46;94397.61;1665323;84;21062;-48
2022/12/27 08:01:10;;;;;;;8.75;7.37;;;;;;;9.69;76.36;94402.58;1687387;84;21254;-47
2022/12/27 08:03:38;;;;;;;6.92;6.05;;;;;;;9.83;74.49;94421.28;1700663;83;21111;-48
2022/12/27 08:06:05;;;;;;;5.45;4.95;;;;;;;9.94;73.51;94433.40;1685868;83;21094;-47
2022/12/27 08:08:38;;;;;;;5.87;5.28;;;;;;;10.05;72.85;94434.39;1646541;85;21151;-51
2022/12/27 08:11:06;;;;;;;4.60;4.20;;;;;;;10.15;72.38;94429.86;1622205;85;21042;-52
2022/12/27 08:13:33;;;;;;;7.72;6.62;;;;;;;10.24;71.39;94421.67;1645791;85;21152;-46
2022/12/27 08:16:00;;;;;;;8.43;7.22;;;;;;;10.35;71.28;94419.24;1658239;84;21122;-48
2022/12/27 08:18:28;;;;;;;5.00;4.60;;;;;;;10.44;70.37;94411.04;1684795;84;21568;-48
2022/12/27 08:20:55;;;;;;;7.37;5.53;;;;;;;10.51;69.14;94408.63;1659088;84;21285;-45
2022/12/27 08:23:22;;;;;;;5.50;5.00;;;;;;;10.53;68.61;94410.30;1638457;85;21157;-48
2022/12/27 08:25:50;;;;;;;5.87;5.35;;;;;;;10.57;68.66;94421.30;1661907;84;21236;-53
2022/12/27 08:28:18;;;;;;;5.83;5.20;;;;;;;10.64;68.64;94439.50;1668160;83;21072;-46
2022/12/27 08:30:45;;;;;;;5.28;4.53;;;;;;;10.73;67.97;94438.16;1645684;85;21136;-47
2022/12/27 08:33:14;;;;;;;6.33;5.67;;;;;;;10.79;67.50;94439.86;1623420;84;21122;-45
2022/12/27 08:35:44;;;;;;;6.08;5.22;;;;;;;10.82;67.41;94444.45;1663922;84;21076;-51
2022/12/27 08:38:10;;;;;;;6.53;5.20;;;;;;;10.87;66.68;94440.49;1672042;83;21286;-49
2022/12/27 08:40:41;;;;;;;6.50;5.17;;;;;;;10.88;66.39;94446.16;1643168;84;21178;-48
2022/12/27 08:43:09;;;;;;;6.00;4.55;;;;;;;10.87;65.85;94447.38;1658671;84;21058;-48
2022/12/27 08:45:36;;;;;;;5.10;4.60;;;;;;;10.88;65.91;94454.41;1637688;85;21170;-48
2022/12/27 08:48:08;;;;;;;5.10;4.70;;;;;;;10.93;65.88;94441.41;1662568;85;21139;-46
2022/12/27 08:50:35;;;;;;;5.47;4.97;;;;;;;11.01;65.72;94447.39;1601569;87;21924;-48
2022/12/27 08:53:03;;;;;;;8.08;5.78;;;;;;;11.21;65.44;94445.71;1611897;87;21247;-47
2022/12/27 08:55:31;;;;;;;5.15;4.67;;;;;;;11.42;64.72;94450.33;1606857;88;21061;-48
2022/12/27 08:58:05;;;;;;;5.00;4.60;;;;;;;11.60;63.88;94444.06;1630966;86;21125;-51
2022/12/27 09:00:32;;;;;;;6.70;5.75;;;;;;;11.78;63.75;94433.80;1615765;86;21188;-49
2022/12/27 09:02:58;;;;;;;7.08;5.80;;;;;;;12.12;63.20;94440.91;1594430;86;21351;-52
2022/12/27 09:05:26;;;;;;;8.00;6.75;;;;;;;12.43;61.88;94433.90;1597693;87;21137;-48
2022/12/27 09:07:53;;;;;;;10.55;6.37;;;;;;;12.67;60.28;94434.70;1629854;87;21152;-48
2022/12/27 09:10:21;;;;;;;7.95;7.00;;;;;;;12.76;60.16;94448.47;1635223;85;21187;-50
2022/12/27 09:12:49;;;;;;;9.98;8.08;;;;;;;12.77;60.38;94447.23;1644960;85;21182;-50
2022/12/27 09:15:17;;;;;;;5.70;5.10;;;;;;;12.90;60.47;94443.65;1687443;82;21222;-49
2022/12/27 09:17:44;;;;;;;4.20;3.80;;;;;;;13.11;59.66;94444.00;1691299;83;21040;-49
2022/12/27 09:20:13;;;;;;;6.03;3.95;;;;;;;13.21;58.53;94429.66;1685382;82;21104;-48
2022/12/27 09:22:41;;;;;;;7.30;4.78;;;;;;;13.34;58.71;94437.09;1635623;85;21193;-49
2022/12/27 09:25:09;;;;;;;5.97;5.12;;;;;;;13.49;58.54;94435.74;1707772;83;21307;-48
2022/12/27 09:27:37;;;;;;;4.17;3.75;;;;;;;13.77;57.79;94436.41;1668726;83;21174;-51
2022/12/27 09:30:05;;;;;;;3.67;3.37;;;;;;;14.09;56.96;94421.66;1696891;83;21111;-48
2022/12/27 09:32:33;;;;;;;3.33;3.02;;;;;;;14.21;55.96;94426.78;1704507;83;21184;-49
2022/12/27 09:35:02;;;;;;;3.15;2.85;;;;;;;14.32;55.81;94422.20;1700707;82;21124;-48
2022/12/27 09:37:29;;;;;;;3.30;3.00;;;;;;;14.50;54.92;94425.52;1700274;83;21096;-44
2022/12/27 09:39:56;;;;;;;3.30;3.00;;;;;;;14.70;54.35;94425.58;1688959;83;21569;-47
2022/12/27 09:42:43;;;;;;;3.65;2.85;;;;;;;14.79;53.96;94428.22;1702305;82;21149;-47
2022/12/27 09:45:16;;;;;;;3.22;2.90;;;;;;;14.71;53.71;94432.64;1612050;86;21183;-49
2022/12/27 09:47:56;;;;;;;4.70;3.50;;;;;;;14.55;53.99;94438.69;1620332;86;21149;-47
2022/12/27 09:50:39;;;;;;;4.10;3.70;;;;;;;14.34;54.75;94443.87;1634532;86;21152;-47
2022/12/27 09:53:23;;;;;;;5.50;3.40;;;;;;;14.13;55.66;94433.29;1638091;85;21750;-50
2022/12/27 09:55:54;;;;;;;3.40;3.10;;;;;;;14.14;55.92;94440.98;1688778;84;21656;-52
2022/12/27 09:58:54;;;;;;;6.90;6.03;;;;;;;14.28;55.30;94441.61;1609558;87;21092;-51
2022/12/27 10:01:33;;;;;;;7.05;5.20;;;;;;;14.31;55.57;94442.81;1587748;88;21138;-54
2022/12/27 10:04:00;;;;;;;5.15;3.70;;;;;;;14.20;56.13;94441.86;1557857;89;21649;-55
2022/12/27 10:06:51;;;;;;;10.43;7.10;;;;;;;14.14;55.68;94445.13;1569556;89;21959;-56
2022/12/27 10:10:02;;;;;;;4.97;3.25;;;;;;;14.06;56.02;94448.12;1582267;88;21283;-52
2022/12/27 10:13:04;;;;;;;5.87;3.47;;;;;;;13.83;56.29;94448.97;1561858;89;21066;-54
2022/12/27 10:15:49;;;;;;;5.33;3.60;;;;;;;13.44;57.42;94450.22;1575838;89;21363;-53
2022/12/27 10:18:36;;;;;;;4.67;3.65;;;;;;;13.09;58.52;94447.86;1539457;90;21133;-56
2022/12/27 10:23:59;;;;;;;3.70;3.30;;;;;;;12.82;60.02;94453.48;1418934;98;21949;-55
2022/12/27 10:26:27;;;;;;;4.53;3.42;;;;;;;13.29;60.30;94460.45;1394849;100;21243;-52
2022/12/27 10:29:01;;;;;;;3.95;3.12;;;;;;;13.97;59.10;94461.41;1395680;101;21202;-58
2022/12/27 10:31:28;;;;;;;4.85;3.90;;;;;;;14.45;57.46;94456.62;1396249;101;21255;-56
2022/12/27 10:33:55;;;;;;;4.10;3.42;;;;;;;14.74;56.78;94462.75;1391401;101;21507;-54
2022/12/27 10:36:32;;;;;;;2.85;2.60;;;;;;;14.93;56.00;94458.50;1388798;100;21728;-55
2022/12/27 10:39:09;;;;;;;5.28;3.12;;;;;;;15.09;55.51;94453.21;1386546;101;21315;-56
2022/12/27 10:42:08;;;;;;;6.28;4.20;;;;;;;15.24;54.38;94451.77;1393559;100;21247;-56
2022/12/27 10:44:35;;;;;;;3.67;3.25;;;;;;;15.08;54.12;94472.47;1385594;101;21320;-53
2022/12/27 10:47:03;;;;;;;4.30;3.90;;;;;;;14.51;54.38;94458.88;1411434;100;21972;-54
2022/12/27 10:49:32;;;;;;;7.08;5.55;;;;;;;14.02;54.74;94458.61;1403656;100;21302;-56
2022/12/27 10:52:19;;;;;;;9.53;6.58;;;;;;;13.48;55.82;94455.69;1400363;99;21334;-57
2022/12/27 10:54:54;;;;;;;10.90;6.20;;;;;;;13.03;56.98;94451.87;1386376;98;21280;-54
2022/12/27 10:57:32;;;;;;;6.53;5.42;;;;;;;12.82;57.45;94457.63;1446819;97;21155;-47
2022/12/27 11:00:21;;;;;;;9.58;6.47;;;;;;;13.04;57.17;94455.41;1478546;95;21412;-49
2022/12/27 11:02:52;;;;;;;9.78;7.00;;;;;;;13.34;56.13;94461.17;1490248;94;22235;-51
2022/12/27 11:05:31;;;;;;;11.03;8.10;;;;;;;13.41;55.59;94457.44;1484288;94;21215;-49
2022/12/27 11:08:01;;;;;;;10.95;6.20;;;;;;;13.29;55.50;94461.84;1468309;96;21610;-45
2022/12/27 11:13:06;;;;;;;7.47;5.67;;;;;;;13.55;55.26;94461.48;1435396;97;21682;-47
2022/12/27 11:15:40;;;;;;;12.78;5.28;;;;;;;13.72;54.57;94461.19;1376799;102;21170;-47
2022/12/27 11:18:20;;;;;;;6.20;5.05;;;;;;;14.06;54.00;94462.73;1417412;99;21215;-47
2022/12/27 11:20:54;;;;;;;7.05;5.33;;;;;;;14.28;51.77;94455.45;1429851;97;21172;-45
2022/12/27 11:23:24;;;;;;;5.83;4.90;;;;;;;14.51;51.51;94455.34;1447356;97;21201;-51
2022/12/27 11:26:00;;;;;;;13.40;6.05;;;;;;;14.94;50.71;94464.95;1451881;97;21970;-50
2022/12/27 11:28:58;;;;;;;8.95;5.58;;;;;;;15.43;49.68;94462.14;1453147;95;21999;-51
2022/12/27 11:31:40;;;;;;;5.97;5.37;;;;;;;15.49;49.43;94467.73;1473648;93;21119;-51
2022/12/27 11:34:27;;;;;;;7.50;5.97;;;;;;;15.31;48.38;94470.16;1437502;98;21653;-46
2022/12/27 11:37:06;;;;;;;20.82;6.28;;;;;;;15.55;47.48;94476.91;1423815;98;21673;-50
2022/12/27 11:39:43;;;;;;;8.43;6.28;;;;;;;15.35;46.73;94467.94;1418901;98;21215;-48
2022/12/27 11:42:37;;;;;;;11.88;7.22;;;;;;;14.77;47.60;94488.87;1449635;97;21928;-49
2022/12/27 11:45:18;;;;;;;23.62;8.48;;;;;;;14.08;48.89;94482.37;1461857;95;21931;-50
2022/12/27 11:47:59;;;;;;;10.08;6.12;;;;;;;13.46;50.46;94485.05;1458911;95;21195;-50
2022/12/27 11:50:51;;;;;;;13.43;7.47;;;;;;;12.85;51.27;94489.81;1460019;95;21187;-50
2022/12/27 11:53:50;;;;;;;7.90;5.92;;;;;;;12.35;52.74;94494.78;1468143;95;21382;-50
2022/12/27 11:56:28;;;;;;;20.68;7.75;;;;;;;11.92;53.36;94493.03;1459893;95;21717;-49
2022/12/27 11:59:19;;;;;;;13.10;6.75;;;;;;;11.58;54.63;94506.53;1450895;96;21146;-55
2022/12/27 12:02:23;;;;;;;11.97;5.40;;;;;;;11.33;54.66;94506.02;1433011;97;21171;-57
2022/12/27 12:05:33;;;;;;;16.95;11.08;;;;;;;11.11;55.16;94507.51;1495916;93;21094;-50
2022/12/27 12:08:38;;;;;;;19.60;6.42;;;;;;;11.79;54.99;94495.96;1506242;93;21195;-54
2022/12/27 12:11:21;;;;;;;25.17;6.55;;;;;;;13.39;52.17;94501.97;1540258;90;21149;-54
2022/12/27 12:14:24;;;;;;;11.97;5.05;;;;;;;14.90;49.31;94513.48;1502939;93;21245;-54
2022/12/27 12:17:29;;;;;;;;;;;;;;;15.99;46.55;94523.97;1506860;92;21164;-51
2022/12/27 12:20:42;;;;;;;12.43;5.33;;;;;;;15.80;45.53;94524.12;1536837;92;20384;-52
2022/12/27 12:23:47;;;;;;;10.53;6.83;;;;;;;14.83;47.10;94530.50;1541818;92;21317;-47
2022/12/27 12:30:12;;;;;;;25.65;7.15;;;;;;;15.16;47.72;94533.16;1472672;95;21432;-48
2022/12/27 12:32:51;;;;;;;5.35;4.58;;;;;;;16.47;45.55;94526.41;1570575;89;21128;-47
2022/12/27 12:35:32;;;;;;;19.35;4.85;;;;;;;17.55;42.18;94529.20;1568571;88;21140;-49
2022/12/27 12:38:25;;;;;;;55.40;23.35;;;;;;;18.09;40.71;94526.55;1624969;86;21923;-48
2022/12/27 12:41:25;;;;;;;13.72;6.67;;;;;;;18.29;40.26;94535.50;1625507;86;21169;-48
2022/12/27 12:44:16;;;;;;;10.55;5.90;;;;;;;18.51;39.67;94539.76;1594384;87;21199;-51
2022/12/27 12:47:17;;;;;;;9.20;5.17;;;;;;;18.38;39.09;94539.47;1589299;88;21065;-55
2022/12/27 12:50:20;;;;;;;11.18;5.08;;;;;;;17.68;39.60;94544.06;1512246;92;21160;-49
2022/12/27 12:53:12;;;;;;;;;;;;;;;16.81;40.81;94546.30;1588073;89;21455;-47
2022/12/27 12:56:19;;;;;;;38.98;7.90;;;;;;;16.34;41.71;94555.94;1569571;89;20975;-46
2022/12/27 12:59:08;;;;;;;11.48;4.35;;;;;;;;;;1535923;91;21189;-48
2022/12/27 13:01:47;;;;;;;8.35;3.90;;;;;;;16.64;41.57;94557.27;1533944;90;21176;-47
2022/12/27 13:04:43;;;;;;;7.87;4.33;;;;;;;16.77;41.08;94565.95;1549173;91;21140;-48
2022/12/27 13:07:45;;;;;;;6.28;3.37;;;;;;;17.23;41.30;94556.89;1549934;89;21297;-48
2022/12/27 13:10:53;;;;;;;4.90;2.55;;;;;;;17.60;40.37;94572.20;1572995;90;21135;-46
2022/12/27 13:13:55;;;;;;;3.08;1.62;;;;;;;17.49;39.10;94586.05;1585056;89;21149;-45
2022/12/27 13:16:45;;;;;;;1.60;1.30;;;;;;;16.69;39.84;94590.53;1585328;87;21131;-47
2022/12/27 13:19:57;;;;;;;2.60;1.77;;;;;;;15.76;40.96;94593.53;1585205;88;21140;-50
2022/12/27 13:23:07;;;;;;;3.67;1.20;;;;;;;14.25;43.83;94607.20;1601320;86;21352;-52
2022/12/27 13:26:01;;;;;;;2.35;2.15;;;;;;;12.41;47.44;94626.72;1608929;87;21153;-51
2022/12/27 13:28:37;;;;;;;2.25;2.05;;;;;;;10.86;51.73;94639.86;1636753;83;21129;-50
2022/12/27 13:31:47;;;;;;;3.30;2.67;;;;;;;9.79;54.06;94648.67;1685841;83;21461;-50
2022/12/27 13:34:57;;;;;;;5.20;3.75;;;;;;;9.09;55.65;94650.97;1739746;80;21596;-47
2022/12/27 13:37:38;;;;;;;6.17;3.33;;;;;;;8.50;57.62;94660.99;1693548;83;21294;-48
2022/12/27 13:40:43;;;;;;;3.15;2.85;;;;;;;8.00;60.01;94656.10;1670696;84;21074;-49
2022/12/27 13:43:57;;;;;;;3.77;3.12;;;;;;;7.69;61.63;94670.03;1653799;85;21069;-50
2022/12/27 13:46:50;;;;;;;;;;;;;;;7.43;63.70;94703.15;1661163;84;22212;-48
2022/12/27 13:49:35;;;;;;;6.03;5.10;;;;;;;7.15;65.13;94737.41;1642393;85;21108;-50
2022/12/27 13:52:31;;;;;;;3.75;3.45;;;;;;;6.93;65.87;94756.11;1614147;86;21188;-48
2022/12/27 13:55:06;;;;;;;3.45;3.15;;;;;;;6.75;66.23;94753.55;1659325;84;21098;-50
2022/12/27 13:58:22;;;;;;;3.05;2.85;;;;;;;6.57;67.59;94758.61;1659684;84;21395;-48
2022/12/27 14:01:29;;;;;;;8.75;7.35;;;;;;;6.45;67.89;94763.33;1635275;85;21083;-48
2022/12/27 14:04:30;;;;;;;5.20;4.67;;;;;;;6.38;68.98;94771.09;1621236;86;21153;-47
2022/12/27 14:07:33;;;;;;;32.83;22.22;;;;;;;6.36;69.90;94769.34;1590388;88;21585;-48
2022/12/27 14:10:28;;;;;;;8.60;7.62;;;;;;;6.37;70.05;94774.23;1552101;89;21861;-47
2022/12/27 14:13:02;;;;;;;84.45;48.58;;;;;;;6.36;70.42;94780.88;1563971;88;21183;-46
2022/12/27 14:15:56;;;;;;;52.30;38.25;;;;;;;6.35;71.11;94791.03;1554959;89;21198;-46
2022/12/27 14:18:51;;;;;;;7.45;6.50;;;;;;;6.27;71.34;94787.48;1549972;90;21053;-47
2022/12/27 14:21:51;;;;;;;9.30;7.25;;;;;;;6.10;71.37;94794.81;1608595;86;22118;-46
2022/12/27 14:25:09;;;;;;;7.35;5.85;;;;;;;6.04;71.64;94805.27;1619494;86;21083;-52
2022/12/27 14:28:05;;;;;;;10.03;8.30;;;;;;;6.02;72.23;94817.20;1619941;86;21192;-52
2022/12/27 14:31:26;;;;;;;15.43;10.98;;;;;;;5.90;72.86;94812.32;1596693;87;21156;-47
2022/12/27 14:34:02;;;;;;;20.75;15.05;;;;;;;5.82;73.11;94819.09;1517973;91;21148;-47
2022/12/27 14:36:58;;;;;;;16.12;11.60;;;;;;;5.77;73.76;94822.27;1460354;95;21272;-47
2022/12/27 14:39:51;;;;;;;23.92;15.65;;;;;;;5.69;74.59;94818.88;1452390;96;21222;-47
2022/12/27 14:43:14;;;;;;;22.55;15.98;;;;;;;5.50;74.90;94819.57;1468063;94;21643;-50
2022/12/27 14:46:18;;;;;;;25.50;15.25;;;;;;;5.32;75.61;94823.73;1456728;95;21178;-45
2022/12/27 14:49:22;;;;;;;37.28;24.43;;;;;;;5.19;76.19;94826.83;1492506;93;22361;-50
2022/12/27 14:52:34;;;;;;;22.62;17.40;;;;;;;5.09;76.65;94841.39;1494768;94;21319;-48
2022/12/27 14:55:40;;;;;;;28.62;20.82;;;;;;;5.03;77.08;94844.40;1487795;93;21159;-49
2022/12/27 14:58:48;;;;;;;39.35;25.95;;;;;;;4.97;77.71;94838.44;1563593;89;21192;-49
2022/12/27 15:01:44;;;;;;;50.83;32.75;;;;;;;4.95;77.96;94840.80;1524061;92;21179;-46
2022/12/27 15:04:33;;;;;;;48.28;29.50;;;;;;;4.90;78.45;94859.73;1529096;92;21591;-46
2022/12/27 15:07:26;;;;;;;55.55;33.05;;;;;;;4.91;78.57;94859.92;1527782;92;21213;-47
2022/12/27 15:10:12;;;;;;;;;;;;;;;4.90;78.72;94867.91;1510590;94;21089;-45